Time;durP1;ratioP1;P1;durP2;ratioP2;P2;SDS_P1;SDS_P2;PMS_P1;PMS_P2;Temp;Humidity;BMP_temperature;BMP_pressure;BME280_temperature;BME280_humidity;BME280_pressure;Samples;Min_cycle;Max_cycle;Signal;HPM_P1;HPM_P2
2023/11/01 00:00:39;;;;;;;71.90;66.97;;;6.50;94.10;;;;;;5038269;28;20640;-89
2023/11/01 00:03:05;;;;;;;71.83;66.83;;;6.50;94.10;;;;;;5056195;28;20181;-90
2023/11/01 00:05:31;;;;;;;71.73;66.70;;;6.50;94.20;;;;;;5037807;28;20192;-90
2023/11/01 00:07:57;;;;;;;70.47;65.77;;;6.50;94.20;;;;;;5038096;28;20270;-89
2023/11/01 00:10:22;;;;;;;72.17;67.33;;;6.60;94.20;;;;;;5037813;28;20565;-90
2023/11/01 00:12:48;;;;;;;73.37;68.47;;;6.70;94.20;;;;;;5037782;28;20249;-90
2023/11/01 00:15:13;;;;;;;76.00;70.90;;;6.60;94.20;;;;;;5055472;28;20638;-89
2023/11/01 00:17:39;;;;;;;72.53;67.53;;;6.60;94.20;;;;;;5037670;28;20167;-90
2023/11/01 00:20:06;;;;;;;75.27;69.53;;;6.60;94.10;;;;;;5055805;28;20175;-90
2023/11/01 00:22:31;;;;;;;73.63;68.57;;;6.60;94.10;;;;;;5037587;28;20180;-90
2023/11/01 00:24:57;;;;;;;73.63;68.63;;;6.60;94.20;;;;;;5037554;28;20199;-89
2023/11/01 00:27:23;;;;;;;70.13;65.20;;;6.70;94.20;;;;;;5037513;28;20671;-89
2023/11/01 00:29:48;;;;;;;70.33;65.63;;;6.70;94.10;;;;;;5037081;28;20561;-89
2023/11/01 00:32:17;;;;;;;71.27;66.17;;;6.70;94.10;;;;;;5037317;28;20680;-89
2023/11/01 00:34:43;;;;;;;70.50;65.43;;;6.70;94.00;;;;;;5055308;28;20174;-90
2023/11/01 00:37:09;;;;;;;70.47;65.87;;;6.70;94.10;;;;;;5037786;28;20267;-89
2023/11/01 00:39:34;;;;;;;70.63;65.70;;;6.70;94.10;;;;;;5039503;28;20183;-90
2023/11/01 00:42:00;;;;;;;71.83;66.83;;;6.70;94.00;;;;;;5038019;28;20533;-91
2023/11/01 00:44:25;;;;;;;71.47;66.37;;;6.60;94.00;;;;;;5055129;28;20168;-90
2023/11/01 00:46:51;;;;;;;72.37;67.33;;;6.70;94.10;;;;;;5055314;28;20207;-90
2023/11/01 00:49:16;;;;;;;71.33;66.83;;;6.70;94.10;;;;;;5037210;28;20591;-90
2023/11/01 00:51:42;;;;;;;75.30;70.27;;;6.70;94.00;;;;;;5037003;28;20180;-91
2023/11/01 00:54:07;;;;;;;73.47;68.30;;;6.70;94.00;;;;;;5036966;28;20184;-89
2023/11/01 00:56:33;;;;;;;73.93;68.70;;;6.70;94.00;;;;;;5037017;28;20192;-89
2023/11/01 00:58:58;;;;;;;75.13;69.87;;;6.70;94.00;;;;;;5054843;28;20257;-89
2023/11/01 01:01:24;;;;;;;71.67;66.60;;;6.70;94.00;;;;;;5036819;28;20229;-90
2023/11/01 01:03:49;;;;;;;74.70;69.53;;;6.70;94.00;;;;;;5036732;28;20171;-90
2023/11/01 01:06:15;;;;;;;74.97;69.73;;;6.80;94.00;;;;;;5036776;28;20196;-90
2023/11/01 01:08:40;;;;;;;78.83;73.20;;;6.70;93.90;;;;;;5036732;28;20648;-90
2023/11/01 01:11:06;;;;;;;76.97;71.97;;;6.70;93.90;;;;;;5036846;28;20168;-90
2023/11/01 01:13:32;;;;;;;75.60;70.30;;;6.70;93.90;;;;;;5054356;28;20235;-89
2023/11/01 01:15:57;;;;;;;74.37;69.43;;;6.70;94.00;;;;;;5036517;28;20234;-91
2023/11/01 01:18:23;;;;;;;77.10;71.37;;;6.70;94.00;;;;;;5036536;28;20207;-90
2023/11/01 01:20:48;;;;;;;77.17;72.37;;;6.70;94.00;;;;;;5054379;28;20172;-88
2023/11/01 01:23:14;;;;;;;77.30;71.80;;;6.70;93.90;;;;;;5054782;28;20217;-88
2023/11/01 01:25:40;;;;;;;75.47;69.90;;;6.70;94.00;;;;;;5036305;28;20200;-89
2023/11/01 01:28:06;;;;;;;75.13;70.00;;;6.70;94.00;;;;;;5036425;28;20167;-89
2023/11/01 01:30:31;;;;;;;72.90;67.93;;;6.70;94.00;;;;;;5036249;28;20325;-89
2023/11/01 01:32:57;;;;;;;74.67;69.57;;;6.70;94.00;;;;;;5036370;28;20197;-89
2023/11/01 01:35:23;;;;;;;77.53;71.77;;;6.70;94.00;;;;;;5054174;28;20190;-88
2023/11/01 01:37:49;;;;;;;77.30;72.03;;;6.70;94.00;;;;;;5036133;28;20255;-88
2023/11/01 01:40:15;;;;;;;73.53;68.33;;;6.60;94.00;;;;;;5053201;28;20725;-90
2023/11/01 01:42:40;;;;;;;105.00;98.20;;;6.70;94.00;;;;;;5036084;28;20271;-89
2023/11/01 01:45:06;;;;;;;104.60;98.00;;;6.60;94.00;;;;;;5054171;28;20227;-92
2023/11/01 01:47:33;;;;;;;103.13;96.80;;;6.60;93.90;;;;;;5036234;28;20180;-91
2023/11/01 01:50:00;;;;;;;101.50;95.30;;;6.60;94.00;;;;;;5036268;28;20180;-90
2023/11/01 01:52:26;;;;;;;67.87;62.90;;;6.60;94.00;;;;;;5036103;28;20211;-91
2023/11/01 01:54:53;;;;;;;66.83;62.13;;;6.70;94.00;;;;;;5036432;28;20200;-91
2023/11/01 01:57:24;;;;;;;99.70;93.17;;;6.70;94.00;;;;;;5036197;28;20176;-91
2023/11/01 01:59:51;;;;;;;100.20;93.60;;;6.70;93.90;;;;;;5036063;28;20700;-90
2023/11/01 02:02:19;;;;;;;97.97;91.70;;;6.70;93.90;;;;;;5035948;28;20180;-89
2023/11/01 02:04:45;;;;;;;64.30;59.07;;;6.70;93.90;;;;;;5035851;28;20180;-90
2023/11/01 02:07:10;;;;;;;63.43;59.03;;;6.70;93.80;;;;;;5036558;28;20321;-89
2023/11/01 02:09:36;;;;;;;95.20;89.30;;;6.70;93.80;;;;;;5053656;28;20187;-90
2023/11/01 02:12:01;;;;;;;95.97;89.43;;;6.70;93.80;;;;;;5035710;28;20180;-90
2023/11/01 02:14:27;;;;;;;96.57;89.87;;;6.70;93.70;;;;;;5053613;28;20186;-90
2023/11/01 02:16:52;;;;;;;62.90;58.57;;;6.70;93.70;;;;;;5035649;28;20754;-89
2023/11/01 02:19:18;;;;;;;63.50;59.30;;;6.70;93.60;;;;;;5053595;28;20176;-90
2023/11/01 02:21:44;;;;;;;97.43;91.00;;;6.70;93.50;;;;;;5035612;28;20187;-91
2023/11/01 02:24:10;;;;;;;90.40;84.67;;;6.70;93.50;;;;;;5035598;28;20180;-88
2023/11/01 02:26:35;;;;;;;89.30;83.80;;;6.70;93.40;;;;;;5035442;28;20215;-90
2023/11/01 02:29:02;;;;;;;56.20;51.73;;;6.70;93.40;;;;;;5035595;28;20176;-91
2023/11/01 02:31:28;;;;;;;55.50;51.40;;;6.70;93.30;;;;;;5035753;28;20179;-88
2023/11/01 02:33:53;;;;;;;82.57;76.97;;;6.70;93.20;;;;;;5035579;28;20207;-89
2023/11/01 02:36:19;;;;;;;80.33;74.70;;;6.60;93.10;;;;;;5035475;28;20196;-91
2023/11/01 02:38:44;;;;;;;58.40;54.13;;;6.70;93.00;;;;;;5035612;28;20235;-90
2023/11/01 02:41:10;;;;;;;49.93;46.27;;;6.70;92.90;;;;;;5035478;28;20179;-90
2023/11/01 02:43:35;;;;;;;51.43;47.93;;;6.70;92.80;;;;;;5053501;28;20172;-90
2023/11/01 02:46:01;;;;;;;82.73;77.10;;;6.70;92.80;;;;;;5035445;28;20230;-90
2023/11/01 02:48:27;;;;;;;83.90;78.33;;;6.80;92.80;;;;;;5035514;28;20211;-90
2023/11/01 02:50:52;;;;;;;53.70;49.93;;;6.80;92.70;;;;;;5053710;28;20172;-88
2023/11/01 02:53:17;;;;;;;55.73;52.07;;;6.80;92.70;;;;;;5039431;28;20576;-89
2023/11/01 02:55:43;;;;;;;57.40;53.07;;;6.70;92.70;;;;;;5039710;28;20741;-89
2023/11/01 02:58:08;;;;;;;87.80;82.40;;;6.70;92.70;;;;;;5039724;28;20171;-88
2023/11/01 03:00:34;;;;;;;83.43;78.17;;;6.70;92.70;;;;;;5039690;28;20176;-89
2023/11/01 03:02:59;;;;;;;55.87;52.03;;;6.70;92.70;;;;;;5039709;28;20178;-90
2023/11/01 03:05:27;;;;;;;53.57;49.83;;;6.70;92.70;;;;;;5039719;28;20679;-90
2023/11/01 03:07:53;;;;;;;81.67;75.90;;;6.60;92.70;;;;;;5039705;28;20656;-90
2023/11/01 03:10:20;;;;;;;79.93;74.73;;;6.70;92.70;;;;;;5039898;28;20258;-90
2023/11/01 03:12:46;;;;;;;81.03;75.80;;;6.70;92.70;;;;;;5039728;28;20679;-90
2023/11/01 03:15:12;;;;;;;53.00;48.93;;;6.70;92.70;;;;;;5039321;28;20203;-91
2023/11/01 03:17:37;;;;;;;50.90;47.37;;;6.80;92.70;;;;;;5039089;28;20175;-89
2023/11/01 03:20:05;;;;;;;76.83;71.67;;;6.80;92.80;;;;;;5038959;28;20180;-90
2023/11/01 03:22:31;;;;;;;78.40;73.13;;;6.80;92.70;;;;;;5039509;28;20172;-91
2023/11/01 03:24:56;;;;;;;80.73;74.80;;;6.80;92.70;;;;;;5039232;28;20302;-90
2023/11/01 03:27:22;;;;;;;49.60;46.30;;;6.80;92.70;;;;;;5056926;28;20234;-91
2023/11/01 03:29:48;;;;;;;50.57;47.37;;;6.80;92.70;;;;;;5038988;28;20210;-90
2023/11/01 03:32:13;;;;;;;77.30;72.40;;;6.80;92.70;;;;;;5039092;28;20210;-89
2023/11/01 03:34:39;;;;;;;76.73;71.50;;;6.80;92.70;;;;;;5039004;28;20214;-89
2023/11/01 03:37:04;;;;;;;84.20;78.33;;;6.80;92.70;;;;;;5056649;28;20179;-89
2023/11/01 03:39:30;;;;;;;51.70;47.90;;;6.80;92.70;;;;;;5056610;28;20172;-89
2023/11/01 03:41:55;;;;;;;53.13;49.37;;;6.80;92.60;;;;;;5056519;28;20254;-89
2023/11/01 03:44:21;;;;;;;74.17;69.30;;;6.80;92.60;;;;;;5038988;28;20175;-89
2023/11/01 03:46:46;;;;;;;70.20;65.47;;;6.90;92.60;;;;;;5056670;28;20196;-90
2023/11/01 03:49:12;;;;;;;81.47;75.97;;;6.80;92.60;;;;;;5038478;28;20172;-90
2023/11/01 03:51:37;;;;;;;49.43;46.13;;;6.90;92.60;;;;;;5038653;28;20172;-90
2023/11/01 03:54:03;;;;;;;51.90;47.93;;;6.90;92.60;;;;;;5038419;28;20762;-89
2023/11/01 03:56:28;;;;;;;71.60;66.97;;;6.80;92.60;;;;;;5038810;28;20199;-90
2023/11/01 03:58:54;;;;;;;72.40;67.40;;;6.90;92.60;;;;;;5038707;28;20176;-88
2023/11/01 04:01:21;;;;;;;83.13;77.53;;;6.80;92.60;;;;;;5056301;28;20174;-90
2023/11/01 04:03:47;;;;;;;50.20;46.80;;;6.80;92.50;;;;;;5037638;28;20665;-90
2023/11/01 04:06:12;;;;;;;50.03;46.40;;;6.80;92.50;;;;;;5038326;28;20233;-88
2023/11/01 04:08:38;;;;;;;74.23;69.00;;;6.80;92.50;;;;;;5038369;28;20209;-90
2023/11/01 04:11:04;;;;;;;75.00;70.27;;;6.90;92.50;;;;;;5056031;28;20266;-92
2023/11/01 04:13:31;;;;;;;47.07;43.90;;;6.80;92.50;;;;;;5055959;28;20809;-90
2023/11/01 04:15:57;;;;;;;45.27;41.93;;;6.80;92.50;;;;;;5056055;28;20676;-89
2023/11/01 04:18:23;;;;;;;46.40;42.87;;;6.80;92.40;;;;;;5056031;28;20164;-91
2023/11/01 04:20:49;;;;;;;46.57;43.13;;;6.80;92.40;;;;;;5038127;28;20263;-91
2023/11/01 04:23:16;;;;;;;44.10;41.03;;;6.80;92.30;;;;;;5038276;28;20219;-90
2023/11/01 04:25:41;;;;;;;42.90;39.43;;;6.90;92.30;;;;;;5055716;28;20207;-90
2023/11/01 04:28:07;;;;;;;39.30;35.97;;;6.90;92.10;;;;;;5055962;28;20164;-90
2023/11/01 04:30:38;;;;;;;40.27;37.33;;;6.80;92.00;;;;;;5055783;28;20187;-90
2023/11/01 04:33:06;;;;;;;35.57;33.40;;;6.90;91.90;;;;;;5037674;28;20207;-92
2023/11/01 04:35:34;;;;;;;39.17;36.23;;;6.90;91.80;;;;;;5037646;28;20200;-88
2023/11/01 04:38:00;;;;;;;34.77;31.90;;;6.90;91.60;;;;;;5037986;28;20238;-88
2023/11/01 04:40:25;;;;;;;34.30;31.83;;;6.90;91.40;;;;;;5055648;28;20255;-91
2023/11/01 04:42:51;;;;;;;33.13;30.87;;;6.90;91.20;;;;;;5037886;28;20211;-90
2023/11/01 04:45:16;;;;;;;33.70;31.00;;;6.90;90.90;;;;;;5037750;28;20196;-91
2023/11/01 04:47:46;;;;;;;33.67;31.27;;;6.90;90.60;;;;;;5037526;28;20176;-90
2023/11/01 04:50:13;;;;;;;33.53;30.93;;;7.00;90.50;;;;;;5037589;28;20723;-90
2023/11/01 04:52:40;;;;;;;31.80;29.70;;;7.00;90.30;;;;;;5055740;28;20230;-90
2023/11/01 04:55:06;;;;;;;34.13;31.70;;;6.90;90.20;;;;;;5055436;28;20188;-89
2023/11/01 04:57:32;;;;;;;34.77;31.93;;;6.90;90.20;;;;;;5037310;28;20235;-90
2023/11/01 04:59:58;;;;;;;33.77;30.63;;;6.90;90.10;;;;;;5037509;28;20176;-91
2023/11/01 05:02:24;;;;;;;34.80;32.10;;;6.90;89.90;;;;;;5037485;28;20190;-90
2023/11/01 05:04:50;;;;;;;33.83;31.10;;;6.90;89.80;;;;;;5055107;28;20200;-90
2023/11/01 05:07:16;;;;;;;30.73;28.33;;;7.00;89.70;;;;;;5037101;28;20183;-91
2023/11/01 05:09:41;;;;;;;26.97;25.00;;;6.90;89.30;;;;;;5037112;28;20552;-89
2023/11/01 05:12:07;;;;;;;27.83;25.60;;;6.90;89.10;;;;;;5036901;28;20180;-90
2023/11/01 05:14:33;;;;;;;28.60;26.13;;;6.90;88.90;;;;;;5036273;28;20176;-90
2023/11/01 05:16:59;;;;;;;30.47;28.47;;;6.90;88.70;;;;;;5036538;28;20208;-90
2023/11/01 05:19:24;;;;;;;28.23;26.40;;;7.00;88.70;;;;;;5054725;28;20293;-90
2023/11/01 05:21:50;;;;;;;31.20;28.97;;;7.00;88.90;;;;;;5054648;28;20168;-90
2023/11/01 05:24:15;;;;;;;34.33;31.53;;;7.00;88.80;;;;;;5036813;28;20195;-90
2023/11/01 05:26:42;;;;;;;32.60;30.07;;;7.00;89.00;;;;;;5036456;28;20223;-90
2023/11/01 05:29:08;;;;;;;32.80;30.50;;;7.00;89.10;;;;;;5036889;28;20590;-90
2023/11/01 05:31:33;;;;;;;33.40;30.90;;;7.00;89.10;;;;;;5036600;28;20180;-90
2023/11/01 05:34:00;;;;;;;31.37;29.17;;;7.00;89.20;;;;;;5036599;28;20694;-90
2023/11/01 05:36:26;;;;;;;33.40;30.27;;;7.00;89.10;;;;;;5054382;28;20220;-90
2023/11/01 05:38:52;;;;;;;32.77;30.13;;;7.00;89.10;;;;;;5036468;28;20179;-90
2023/11/01 05:41:18;;;;;;;31.93;29.63;;;7.00;89.10;;;;;;5054707;28;20651;-90
2023/11/01 05:43:44;;;;;;;30.03;27.77;;;7.00;89.10;;;;;;5036713;28;20180;-90
2023/11/01 05:46:09;;;;;;;28.40;26.40;;;7.00;88.80;;;;;;5054124;28;20188;-91
2023/11/01 05:48:35;;;;;;;27.60;25.63;;;7.00;88.80;;;;;;5036220;28;20172;-88
2023/11/01 05:51:02;;;;;;;29.43;27.23;;;7.00;88.80;;;;;;5036183;28;20186;-89
2023/11/01 05:53:27;;;;;;;30.47;28.47;;;7.10;88.80;;;;;;5036286;28;20227;-90
2023/11/01 05:55:53;;;;;;;32.53;29.70;;;7.10;88.80;;;;;;5036161;28;20200;-89
2023/11/01 05:58:19;;;;;;;32.87;30.17;;;7.10;88.90;;;;;;5036239;28;20263;-90
2023/11/01 06:00:47;;;;;;;31.10;28.47;;;7.10;89.00;;;;;;5053899;28;20266;-90
2023/11/01 06:03:13;;;;;;;32.00;29.70;;;7.10;89.00;;;;;;5036217;28;20199;-91
2023/11/01 06:05:39;;;;;;;31.17;28.80;;;7.10;89.20;;;;;;5036016;28;20664;-89
2023/11/01 06:08:11;;;;;;;34.00;31.57;;;7.20;89.20;;;;;;5035960;28;20191;-91
2023/11/01 06:10:37;;;;;;;33.93;31.63;;;7.10;89.30;;;;;;5054156;28;20244;-89
2023/11/01 06:13:03;;;;;;;36.57;34.00;;;7.20;89.50;;;;;;5036529;28;20231;-89
2023/11/01 06:15:29;;;;;;;35.83;33.33;;;7.10;89.60;;;;;;5036478;28;20249;-90
2023/11/01 06:17:56;;;;;;;37.37;34.53;;;7.20;89.80;;;;;;5053840;28;20172;-89
2023/11/01 06:20:22;;;;;;;35.97;33.33;;;7.20;90.00;;;;;;5035999;28;20187;-90
2023/11/01 06:22:47;;;;;;;37.37;34.30;;;7.10;90.10;;;;;;5036105;28;20180;-88
2023/11/01 06:25:14;;;;;;;57.50;53.60;;;7.10;90.20;;;;;;5035685;28;20240;-89
2023/11/01 06:27:39;;;;;;;57.87;54.03;;;7.20;90.30;;;;;;5053259;28;20210;-90
2023/11/01 06:30:05;;;;;;;57.97;54.13;;;7.20;90.50;;;;;;5035899;28;20176;-90
2023/11/01 06:32:32;;;;;;;39.53;36.10;;;7.10;90.60;;;;;;5035348;28;20208;-90
2023/11/01 06:34:59;;;;;;;42.07;38.50;;;7.20;90.70;;;;;;5035547;28;20215;-90
2023/11/01 06:37:25;;;;;;;40.97;38.10;;;7.20;90.80;;;;;;5053524;28;20180;-90
2023/11/01 06:39:50;;;;;;;63.07;58.90;;;7.20;91.00;;;;;;5035806;28;20536;-89
2023/11/01 06:42:16;;;;;;;64.10;59.87;;;7.20;91.10;;;;;;5035669;28;20655;-90
2023/11/01 06:44:42;;;;;;;44.47;41.37;;;7.20;91.20;;;;;;5035606;28;20179;-90
2023/11/01 06:47:07;;;;;;;43.37;40.30;;;7.20;91.30;;;;;;5035884;28;20186;-90
2023/11/01 06:49:37;;;;;;;53.77;50.03;;;7.20;91.40;;;;;;5035614;28;20230;-89
2023/11/01 06:52:06;;;;;;;64.23;59.67;;;7.20;91.50;;;;;;5053764;28;20156;-90
2023/11/01 06:54:32;;;;;;;65.93;60.93;;;7.20;91.60;;;;;;5035439;28;20172;-90
2023/11/01 06:56:58;;;;;;;46.80;42.77;;;7.20;91.70;;;;;;5036121;28;20640;-90
2023/11/01 06:59:23;;;;;;;46.43;42.63;;;7.30;91.80;;;;;;5053498;28;20183;-88
2023/11/01 07:01:49;;;;;;;66.07;61.37;;;7.30;91.90;;;;;;5053734;28;20183;-90
2023/11/01 07:04:14;;;;;;;70.67;66.00;;;7.30;91.90;;;;;;5035708;28;20175;-90
2023/11/01 07:06:42;;;;;;;66.03;61.43;;;7.30;92.00;;;;;;5035627;28;20204;-89
2023/11/01 07:09:09;;;;;;;51.27;47.40;;;7.30;92.10;;;;;;5035643;28;20176;-89
2023/11/01 07:11:35;;;;;;;51.77;47.80;;;7.20;92.20;;;;;;5036406;28;20190;-90
2023/11/01 07:14:00;;;;;;;73.80;68.40;;;7.20;92.20;;;;;;5053124;28;20647;-89
2023/11/01 07:16:26;;;;;;;74.40;69.00;;;7.30;92.30;;;;;;5053165;28;20211;-90
2023/11/01 07:18:52;;;;;;;73.80;68.63;;;7.30;92.40;;;;;;5053245;28;20259;-90
2023/11/01 07:21:17;;;;;;;53.03;48.73;;;7.30;92.40;;;;;;5035395;28;20655;-89
2023/11/01 07:23:43;;;;;;;55.20;50.50;;;7.30;92.50;;;;;;5035411;28;20176;-90
2023/11/01 07:26:09;;;;;;;77.00;71.93;;;7.30;92.50;;;;;;5035267;28;20235;-90
2023/11/01 07:28:35;;;;;;;81.70;75.47;;;7.30;92.60;;;;;;5035143;28;20652;-90
2023/11/01 07:31:01;;;;;;;78.47;73.07;;;7.30;92.60;;;;;;5035352;28;20210;-89
2023/11/01 07:33:27;;;;;;;57.97;53.40;;;7.30;92.70;;;;;;5035239;28;20196;-89
2023/11/01 07:35:52;;;;;;;56.77;52.40;;;7.40;92.80;;;;;;5035547;28;20188;-89
2023/11/01 07:38:18;;;;;;;81.90;76.07;;;7.40;92.80;;;;;;5035836;28;20176;-90
2023/11/01 07:40:43;;;;;;;82.97;76.37;;;7.40;92.90;;;;;;5056560;28;20172;-90
2023/11/01 07:43:09;;;;;;;78.03;72.40;;;7.40;92.90;;;;;;5057187;28;20226;-90
2023/11/01 07:45:34;;;;;;;59.90;54.93;;;7.50;93.00;;;;;;5038502;28;20204;-90
2023/11/01 07:48:00;;;;;;;60.30;55.90;;;7.50;93.00;;;;;;5056550;28;20187;-90
2023/11/01 07:50:25;;;;;;;84.80;78.70;;;7.50;93.00;;;;;;5056340;28;20191;-90
2023/11/01 07:52:51;;;;;;;82.53;76.30;;;7.50;93.10;;;;;;5038578;28;20295;-90
2023/11/01 07:55:16;;;;;;;86.97;80.10;;;7.50;93.10;;;;;;5038911;28;20203;-91
2023/11/01 07:57:42;;;;;;;61.53;56.93;;;7.50;93.10;;;;;;5056480;28;20169;-90
2023/11/01 08:00:08;;;;;;;63.37;58.50;;;7.60;93.20;;;;;;5038541;28;20180;-91
2023/11/01 08:02:33;;;;;;;88.07;81.40;;;7.60;93.20;;;;;;5038109;28;20715;-90
2023/11/01 08:04:59;;;;;;;91.40;83.90;;;7.70;93.30;;;;;;5056095;28;20204;-88
2023/11/01 08:07:25;;;;;;;93.67;86.77;;;7.70;93.30;;;;;;5056425;28;20285;-92
2023/11/01 08:09:52;;;;;;;67.03;61.13;;;7.70;93.40;;;;;;5056092;28;20210;-90
2023/11/01 08:12:18;;;;;;;66.50;61.53;;;7.70;93.40;;;;;;5038108;28;20222;-90
2023/11/01 08:14:44;;;;;;;94.63;87.33;;;7.80;93.50;;;;;;5038477;28;20636;-89
2023/11/01 08:17:09;;;;;;;97.00;89.80;;;7.80;93.50;;;;;;5038073;28;20183;-91
2023/11/01 08:19:36;;;;;;;99.60;92.67;;;7.80;93.50;;;;;;5038312;28;20172;-91
2023/11/01 08:22:01;;;;;;;69.80;64.70;;;7.90;93.60;;;;;;5038122;28;20187;-90
2023/11/01 08:24:27;;;;;;;72.07;66.50;;;7.90;93.60;;;;;;5037895;28;20180;-90
2023/11/01 08:26:52;;;;;;;97.63;90.90;;;8.00;93.60;;;;;;5055836;28;20683;-89
2023/11/01 08:29:18;;;;;;;91.43;84.77;;;8.00;93.70;;;;;;5038108;28;20614;-91
2023/11/01 08:31:44;;;;;;;100.20;93.23;;;8.10;93.60;;;;;;5055794;28;20195;-91
2023/11/01 08:34:09;;;;;;;70.37;64.97;;;8.10;93.70;;;;;;5037989;28;20200;-90
2023/11/01 08:36:35;;;;;;;73.57;68.00;;;8.10;93.70;;;;;;5037784;28;20280;-91
2023/11/01 08:39:00;;;;;;;97.77;90.40;;;8.20;93.70;;;;;;5037743;28;20636;-92
2023/11/01 08:41:26;;;;;;;94.43;87.60;;;8.30;93.80;;;;;;5038049;28;20640;-90
2023/11/01 08:43:52;;;;;;;104.53;96.87;;;8.30;93.70;;;;;;5055529;28;20652;-89
2023/11/01 08:46:18;;;;;;;70.60;65.20;;;8.30;93.80;;;;;;5037606;28;20580;-91
2023/11/01 08:48:43;;;;;;;72.47;66.67;;;8.40;93.70;;;;;;5037474;28;20176;-91
2023/11/01 08:51:09;;;;;;;97.53;90.27;;;8.50;93.80;;;;;;5055165;28;20181;-90
2023/11/01 08:53:36;;;;;;;99.17;91.83;;;8.50;93.70;;;;;;5037372;28;20196;-91
2023/11/01 08:56:03;;;;;;;102.23;94.53;;;8.60;93.70;;;;;;5037378;28;20192;-91
2023/11/01 08:58:30;;;;;;;70.67;65.37;;;8.60;93.70;;;;;;5055408;28;20175;-90
2023/11/01 09:00:55;;;;;;;72.63;66.43;;;8.60;93.70;;;;;;5055899;28;20196;-90
2023/11/01 09:03:24;;;;;;;97.43;90.73;;;8.70;93.70;;;;;;5037129;28;20226;-90
2023/11/01 09:05:49;;;;;;;102.23;95.03;;;8.70;93.70;;;;;;5037335;28;20282;-90
2023/11/01 09:08:15;;;;;;;85.30;79.03;;;8.70;93.70;;;;;;5055209;28;20211;-90
2023/11/01 09:10:40;;;;;;;74.00;68.40;;;8.80;93.70;;;;;;5037134;28;20171;-89
2023/11/01 09:13:06;;;;;;;74.33;68.50;;;8.80;93.70;;;;;;5055027;28;20200;-91
2023/11/01 09:15:31;;;;;;;78.33;71.93;;;8.90;93.70;;;;;;5038223;28;20578;-91
2023/11/01 09:17:57;;;;;;;76.57;70.13;;;8.90;93.70;;;;;;5055133;28;20172;-89
2023/11/01 09:20:22;;;;;;;78.60;72.33;;;9.00;93.70;;;;;;5037952;28;20237;-90
2023/11/01 09:22:48;;;;;;;78.60;72.20;;;9.00;93.70;;;;;;5037250;28;20176;-91
2023/11/01 09:25:13;;;;;;;78.13;71.70;;;9.10;93.70;;;;;;5036883;28;20196;-90
2023/11/01 09:27:39;;;;;;;80.03;73.60;;;9.20;93.80;;;;;;5054970;28;20568;-91
2023/11/01 09:30:05;;;;;;;75.83;70.23;;;9.20;93.80;;;;;;5055369;28;20177;-90
2023/11/01 09:32:31;;;;;;;78.37;72.23;;;9.30;93.80;;;;;;5037993;28;20203;-92
2023/11/01 09:34:57;;;;;;;80.37;73.53;;;9.30;93.80;;;;;;5036896;28;20756;-92
2023/11/01 09:37:22;;;;;;;76.73;71.27;;;9.30;93.80;;;;;;5054993;28;20176;-90
2023/11/01 09:39:49;;;;;;;75.37;70.17;;;9.40;93.80;;;;;;5036853;28;20176;-91
2023/11/01 09:42:20;;;;;;;79.57;73.03;;;9.40;93.80;;;;;;5036810;28;20263;-91
2023/11/01 09:44:47;;;;;;;77.93;72.07;;;9.50;93.80;;;;;;5054180;28;20200;-91
2023/11/01 09:47:15;;;;;;;75.63;69.77;;;9.60;93.70;;;;;;5036866;28;20183;-89
2023/11/01 09:49:43;;;;;;;73.97;68.97;;;9.70;93.80;;;;;;5054484;28;20172;-90
2023/11/01 09:52:10;;;;;;;72.33;66.63;;;9.70;93.70;;;;;;5036373;28;20267;-91
2023/11/01 09:54:36;;;;;;;73.17;67.03;;;9.80;93.70;;;;;;5036545;28;20693;-92
2023/11/01 09:57:05;;;;;;;71.20;66.17;;;9.90;93.60;;;;;;5055095;28;20255;-92
2023/11/01 09:59:32;;;;;;;72.83;67.03;;;9.90;93.60;;;;;;5037227;28;20172;-90
2023/11/01 10:02:02;;;;;;;70.10;64.73;;;10.00;93.50;;;;;;5036582;28;20171;-92
2023/11/01 10:04:28;;;;;;;71.00;64.93;;;10.00;93.40;;;;;;5036921;28;20168;-92
2023/11/01 10:06:53;;;;;;;69.90;64.50;;;10.00;93.40;;;;;;5055373;28;20199;-92
2023/11/01 10:09:19;;;;;;;68.43;63.23;;;10.10;93.40;;;;;;5056126;28;20247;-93
2023/11/01 10:11:48;;;;;;;65.53;60.57;;;10.20;93.40;;;;;;5056210;28;20172;-93
2023/11/01 10:14:26;;;;;;;66.33;61.27;;;10.20;93.30;;;;;;5036953;28;20683;-90
2023/11/01 10:16:52;;;;;;;65.87;60.77;;;10.30;93.30;;;;;;5037181;28;20246;-91
2023/11/01 10:19:17;;;;;;;65.50;60.50;;;10.30;93.30;;;;;;5036042;28;20180;-91
2023/11/01 10:21:43;;;;;;;64.07;59.30;;;10.40;93.20;;;;;;5035953;28;20255;-88
2023/11/01 10:24:09;;;;;;;64.97;59.67;;;10.50;93.10;;;;;;5053444;28;20178;-91
2023/11/01 10:26:35;;;;;;;68.53;63.63;;;10.60;93.20;;;;;;5053137;28;20210;-89
2023/11/01 10:29:02;;;;;;;63.37;59.00;;;10.70;93.10;;;;;;5047055;28;20180;-93
2023/11/01 10:31:28;;;;;;;65.70;60.80;;;10.70;93.00;;;;;;5045930;28;20176;-94
2023/11/01 10:33:54;;;;;;;68.13;63.07;;;10.80;93.00;;;;;;5049172;28;20230;-93
2023/11/01 10:36:20;;;;;;;64.07;59.20;;;10.90;93.00;;;;;;5042797;28;20659;-91
2023/11/01 10:38:47;;;;;;;66.70;61.47;;;10.90;92.90;;;;;;5054265;28;20170;-89
2023/11/01 10:41:14;;;;;;;64.50;59.70;;;10.90;92.80;;;;;;5053585;28;20192;-90
2023/11/01 10:43:40;;;;;;;65.93;60.80;;;10.90;92.80;;;;;;5053660;28;20635;-91
2023/11/01 10:46:07;;;;;;;65.50;60.70;;;11.00;92.80;;;;;;5035528;28;20206;-90
2023/11/01 10:48:33;;;;;;;67.30;62.70;;;11.00;92.80;;;;;;5035457;28;20669;-90
2023/11/01 10:50:59;;;;;;;72.17;66.67;;;11.10;92.80;;;;;;5053364;28;20216;-91
2023/11/01 10:53:25;;;;;;;71.93;66.70;;;11.10;92.70;;;;;;5035370;28;20196;-92
2023/11/01 10:55:54;;;;;;;71.77;66.83;;;11.10;92.70;;;;;;5053169;28;20180;-90
2023/11/01 10:58:27;;;;;;;73.40;68.10;;;11.20;92.70;;;;;;5035353;28;20175;-91
2023/11/01 11:01:01;;;;;;;72.97;67.63;;;11.20;92.70;;;;;;5053240;28;20561;-91
2023/11/01 11:03:45;;;;;;;71.70;66.73;;;11.20;92.70;;;;;;5053479;28;20163;-91
2023/11/01 11:06:16;;;;;;;67.07;62.47;;;11.30;92.80;;;;;;5035314;28;20672;-91
2023/11/01 11:08:42;;;;;;;89.70;83.87;;;11.30;92.70;;;;;;5035408;28;20546;-91
2023/11/01 11:11:16;;;;;;;93.53;87.43;;;11.30;92.70;;;;;;5035245;28;20172;-90
2023/11/01 11:13:42;;;;;;;93.67;87.63;;;11.40;92.60;;;;;;5037929;28;20206;-90
2023/11/01 11:16:12;;;;;;;70.53;65.70;;;11.40;92.60;;;;;;5039662;28;20196;-90
2023/11/01 11:18:46;;;;;;;72.67;67.77;;;11.40;92.60;;;;;;5039247;28;20255;-91
2023/11/01 11:21:49;;;;;;;101.87;94.83;;;11.30;92.60;;;;;;5039263;28;20176;-91
2023/11/01 11:24:36;;;;;;;107.23;100.10;;;11.30;92.70;;;;;;5039554;28;20627;-90
2023/11/01 11:27:02;;;;;;;84.87;79.07;;;11.30;92.80;;;;;;5038892;28;20191;-91
2023/11/01 11:29:46;;;;;;;86.97;80.73;;;11.30;92.90;;;;;;5039253;28;20546;-91
2023/11/01 11:32:16;;;;;;;99.40;93.20;;;11.30;93.10;;;;;;5056728;28;20259;-93
2023/11/01 11:34:42;;;;;;;114.00;106.70;;;11.30;93.20;;;;;;5039118;28;20237;-90
2023/11/01 11:37:10;;;;;;;121.00;113.30;;;11.30;93.40;;;;;;5039304;28;20719;-92
2023/11/01 11:40:07;;;;;;;95.80;89.30;;;11.30;93.50;;;;;;5041644;28;20180;-93
2023/11/01 11:42:44;;;;;;;97.03;90.80;;;11.30;93.70;;;;;;5040005;28;20632;-92
2023/11/01 11:45:10;;;;;;;118.47;111.10;;;11.40;93.80;;;;;;5039224;28;20754;-92
2023/11/01 11:47:35;;;;;;;119.43;112.00;;;11.40;93.90;;;;;;5058825;28;20164;-91
2023/11/01 11:50:08;;;;;;;96.63;90.43;;;11.30;94.00;;;;;;5039047;28;20182;-91
2023/11/01 11:52:34;;;;;;;94.37;87.80;;;11.30;94.00;;;;;;5057836;28;20200;-91
2023/11/01 11:55:00;;;;;;;122.30;114.40;;;11.40;94.10;;;;;;5057352;28;20192;-92
2023/11/01 11:57:26;;;;;;;120.13;112.10;;;11.40;94.20;;;;;;5057680;28;20192;-91
2023/11/01 12:00:00;;;;;;;99.87;93.13;;;11.40;94.30;;;;;;5039676;28;20662;-91
2023/11/01 12:02:26;;;;;;;97.53;91.33;;;11.40;94.40;;;;;;5063143;28;20601;-91
2023/11/01 12:04:52;;;;;;;98.53;92.10;;;11.40;94.50;;;;;;5059121;28;20200;-92
2023/11/01 12:07:18;;;;;;;97.90;91.30;;;11.50;94.50;;;;;;5057427;28;20176;-92
2023/11/01 12:09:48;;;;;;;103.53;96.77;;;11.50;94.50;;;;;;5040980;28;20207;-92
2023/11/01 12:12:14;;;;;;;98.17;91.83;;;11.50;94.60;;;;;;5039116;28;20275;-91
2023/11/01 12:14:40;;;;;;;100.20;93.80;;;11.50;94.60;;;;;;5039074;28;20309;-92
2023/11/01 12:17:06;;;;;;;101.67;94.70;;;11.50;94.70;;;;;;5043870;28;20199;-92
2023/11/01 12:19:35;;;;;;;101.13;94.83;;;11.60;94.80;;;;;;5046193;28;20640;-92
2023/11/01 12:22:01;;;;;;;101.57;94.97;;;11.50;94.80;;;;;;5065566;28;20164;-92
2023/11/01 12:24:41;;;;;;;96.03;90.10;;;11.60;94.90;;;;;;5044985;28;20291;-93
2023/11/01 12:27:11;;;;;;;97.00;91.00;;;11.60;95.00;;;;;;5042648;28;20230;-92
2023/11/01 12:29:50;;;;;;;95.80;89.83;;;11.60;95.00;;;;;;5057776;28;20639;-91